createdAt,value
2018-03-15T00:00:35.624Z,37.17
2018-03-15T00:03:03.058Z,46.85
2018-03-15T00:05:30.460Z,41.15
2018-03-15T00:07:57.878Z,43.67
2018-03-15T00:10:25.292Z,44.38
2018-03-15T00:12:52.713Z,45.45
2018-03-15T00:15:28.669Z,50.90
2018-03-15T00:18:52.902Z,44.47
2018-03-15T00:21:20.325Z,46.53
2018-03-15T00:23:47.736Z,53.35
2018-03-15T00:26:15.145Z,52.78
2018-03-15T00:28:42.577Z,46.47
2018-03-15T00:31:09.976Z,62.38
2018-03-15T00:33:37.389Z,49.67
2018-03-15T00:36:04.813Z,51.10
2018-03-15T00:38:32.223Z,52.83
2018-03-15T00:40:59.628Z,61.22
2018-03-15T00:43:27.058Z,50.30
2018-03-15T00:45:54.477Z,56.10
2018-03-15T00:48:21.880Z,57.38
2018-03-15T00:50:49.307Z,62.80
2018-03-15T00:53:16.716Z,58.63
2018-03-15T00:55:44.120Z,57.45
2018-03-15T00:58:11.533Z,57.05
2018-03-15T01:00:38.945Z,57.70
2018-03-15T01:03:06.364Z,78.15
2018-03-15T01:05:33.814Z,58.67
2018-03-15T01:08:01.221Z,57.47
2018-03-15T01:10:28.630Z,70.68
2018-03-15T01:12:56.049Z,59.85
2018-03-15T01:15:23.453Z,68.93
2018-03-15T01:17:50.866Z,65.60
2018-03-15T01:20:18.294Z,55.08
2018-03-15T01:22:45.709Z,70.97
2018-03-15T01:25:13.108Z,70.47
2018-03-15T01:27:40.537Z,63.25
2018-03-15T01:30:08.030Z,65.37
2018-03-15T01:32:35.432Z,67.00
2018-03-15T01:35:02.854Z,71.40
2018-03-15T01:37:30.273Z,70.25
2018-03-15T01:39:57.677Z,70.57
2018-03-15T01:42:25.093Z,62.88
2018-03-15T01:44:52.513Z,67.75
2018-03-15T01:47:20.819Z,69.93
2018-03-15T01:49:48.263Z,68.50
2018-03-15T01:52:15.662Z,72.82
2018-03-15T01:54:43.097Z,76.45
2018-03-15T01:57:10.575Z,77.93
2018-03-15T01:59:37.978Z,76.68
2018-03-15T02:02:05.377Z,85.10
2018-03-15T02:04:32.797Z,84.68
2018-03-15T02:07:00.204Z,71.35
2018-03-15T02:09:27.618Z,73.55
2018-03-15T02:11:55.044Z,70.37
2018-03-15T02:14:22.443Z,83.93
2018-03-15T02:16:49.857Z,77.95
2018-03-15T02:19:17.277Z,81.35
2018-03-15T02:21:44.689Z,81.12
2018-03-15T02:24:12.100Z,76.70
2018-03-15T02:26:39.518Z,80.22
2018-03-15T02:29:06.924Z,88.87
2018-03-15T02:31:34.330Z,82.43
2018-03-15T02:34:01.752Z,89.07
2018-03-15T02:36:29.158Z,86.20
2018-03-15T02:38:56.570Z,83.07
2018-03-15T02:41:23.989Z,87.30
2018-03-15T02:43:51.401Z,85.18
2018-03-15T02:46:18.808Z,88.65
2018-03-15T02:48:46.226Z,101.97
2018-03-15T02:51:13.637Z,79.10
2018-03-15T02:53:41.045Z,97.15
2018-03-15T02:56:08.464Z,92.85
2018-03-15T02:58:35.893Z,92.25
2018-03-15T03:01:03.304Z,85.47
2018-03-15T03:03:30.716Z,87.95
2018-03-15T03:05:58.119Z,97.60
2018-03-15T03:08:25.535Z,95.05
2018-03-15T03:10:52.949Z,101.97
2018-03-15T03:13:20.351Z,90.03
2018-03-15T03:15:47.762Z,94.70
2018-03-15T03:18:15.185Z,84.35
2018-03-15T03:20:42.630Z,99.87
2018-03-15T03:23:10.032Z,95.12
2018-03-15T03:25:37.449Z,97.60
2018-03-15T03:28:04.862Z,100.78
2018-03-15T03:30:32.266Z,102.25
2018-03-15T03:32:59.693Z,95.55
2018-03-15T03:35:27.092Z,97.80
2018-03-15T03:37:54.497Z,103.60
2018-03-15T03:40:21.916Z,94.93
2018-03-15T03:42:49.316Z,94.68
2018-03-15T03:45:16.719Z,91.72
2018-03-15T03:47:44.160Z,102.95
2018-03-15T03:50:11.564Z,101.72
2018-03-15T03:52:39.961Z,104.32
2018-03-15T03:55:07.386Z,103.03
2018-03-15T03:57:34.804Z,116.03
2018-03-15T04:00:02.204Z,106.50
2018-03-15T04:02:29.631Z,108.68
2018-03-15T04:04:57.040Z,111.78
2018-03-15T04:07:24.444Z,116.55
2018-03-15T04:09:51.871Z,109.78
2018-03-15T04:12:19.282Z,118.28
2018-03-15T04:14:46.696Z,117.62
2018-03-15T04:17:14.128Z,104.68
2018-03-15T04:19:41.547Z,113.72
2018-03-15T04:22:08.949Z,102.53
2018-03-15T04:24:36.376Z,121.37
2018-03-15T04:27:03.788Z,105.65
2018-03-15T04:29:31.201Z,102.53
2018-03-15T04:31:58.629Z,101.82
2018-03-15T04:34:26.051Z,99.35
2018-03-15T04:36:53.446Z,109.57
2018-03-15T04:39:20.870Z,122.57
2018-03-15T04:41:48.268Z,117.28
2018-03-15T04:44:15.669Z,108.35
2018-03-15T04:46:43.103Z,119.00
2018-03-15T04:49:10.508Z,136.02
2018-03-15T04:51:37.914Z,120.15
2018-03-15T04:54:05.334Z,129.50
2018-03-15T04:56:32.743Z,134.05
2018-03-15T04:59:00.143Z,128.27
2018-03-15T05:01:27.579Z,137.57
2018-03-15T05:03:54.977Z,123.03
2018-03-15T05:06:22.380Z,129.23
2018-03-15T05:08:49.828Z,123.68
2018-03-15T05:11:17.237Z,125.82
2018-03-15T05:13:44.643Z,136.10
2018-03-15T05:16:12.327Z,124.65
2018-03-15T05:18:39.723Z,125.07
2018-03-15T05:21:07.134Z,124.78
2018-03-15T05:23:34.547Z,110.93
2018-03-15T05:26:01.959Z,108.78
2018-03-15T05:28:29.368Z,104.28
2018-03-15T05:30:56.794Z,114.90
2018-03-15T05:33:24.207Z,112.32
2018-03-15T05:35:51.608Z,120.97
2018-03-15T05:38:19.033Z,123.68
2018-03-15T05:40:46.448Z,108.75
2018-03-15T05:43:13.860Z,113.45
2018-03-15T05:45:41.276Z,118.68
2018-03-15T05:48:08.680Z,111.60
2018-03-15T05:50:36.092Z,103.10
2018-03-15T05:53:03.521Z,106.03
2018-03-15T05:55:30.924Z,101.97
2018-03-15T05:57:58.328Z,99.20
2018-03-15T06:00:25.756Z,98.37
2018-03-15T06:02:53.162Z,92.50
2018-03-15T06:05:20.564Z,88.00
2018-03-15T06:07:47.988Z,95.03
2018-03-15T06:10:15.393Z,92.35
2018-03-15T06:12:42.892Z,86.43
2018-03-15T06:15:10.306Z,91.45
2018-03-15T06:17:37.725Z,87.00
2018-03-15T06:20:05.116Z,93.32
2018-03-15T06:22:32.560Z,89.68
2018-03-15T06:24:59.960Z,79.03
2018-03-15T06:27:27.413Z,87.53
2018-03-15T06:29:54.840Z,94.13
2018-03-15T06:32:22.250Z,96.15
2018-03-15T06:34:49.649Z,81.53
2018-03-15T06:37:17.076Z,85.65
2018-03-15T06:39:44.480Z,83.12
2018-03-15T06:42:11.910Z,80.05
2018-03-15T06:44:39.327Z,93.20
2018-03-15T06:47:06.735Z,88.25
2018-03-15T06:49:34.146Z,79.15
2018-03-15T06:52:01.577Z,81.60
2018-03-15T06:54:28.980Z,76.40
2018-03-15T06:56:56.384Z,69.57
2018-03-15T06:59:23.804Z,66.70
2018-03-15T07:01:51.213Z,60.25
2018-03-15T07:04:18.620Z,59.60
2018-03-15T07:06:46.094Z,59.83
2018-03-15T07:09:13.489Z,59.25
2018-03-15T07:11:40.910Z,66.30
2018-03-15T07:14:08.333Z,63.70
2018-03-15T07:16:35.749Z,64.97
2018-03-15T07:19:03.174Z,56.40
2018-03-15T07:21:30.589Z,69.12
2018-03-15T07:23:57.976Z,61.53
2018-03-15T07:26:25.377Z,48.80
2018-03-15T07:28:52.789Z,47.67
2018-03-15T07:31:20.193Z,53.97
2018-03-15T07:33:47.605Z,54.30
2018-03-15T07:36:15.021Z,45.23
2018-03-15T07:38:42.414Z,56.00
2018-03-15T07:41:09.812Z,51.23
2018-03-15T07:43:37.249Z,51.50
2018-03-15T07:46:04.668Z,58.33
2018-03-15T07:48:32.059Z,53.60
2018-03-15T07:50:59.485Z,56.65
2018-03-15T07:53:26.881Z,62.60
2018-03-15T07:55:54.315Z,58.55
2018-03-15T07:58:21.725Z,62.13
2018-03-15T08:00:49.129Z,61.03
2018-03-15T08:03:16.523Z,60.80
2018-03-15T08:05:43.956Z,62.70
2018-03-15T08:08:11.400Z,65.23
2018-03-15T08:10:38.785Z,60.50
2018-03-15T08:13:06.230Z,59.70
2018-03-15T08:15:33.628Z,57.53
2018-03-15T08:18:01.039Z,58.57
2018-03-15T08:20:28.473Z,46.77
2018-03-15T08:22:55.914Z,54.23
2018-03-15T08:25:23.312Z,56.90
2018-03-15T08:27:50.724Z,48.20
2018-03-15T08:30:18.127Z,52.37
2018-03-15T08:32:45.521Z,61.63
2018-03-15T08:35:12.936Z,50.83
2018-03-15T08:37:40.333Z,52.13
2018-03-15T08:40:07.749Z,54.10
2018-03-15T08:42:35.155Z,53.73
2018-03-15T08:45:02.562Z,59.70
2018-03-15T08:47:29.961Z,58.30
2018-03-15T08:49:57.372Z,58.13
2018-03-15T08:52:24.770Z,50.73
2018-03-15T08:54:52.165Z,56.53
2018-03-15T08:57:19.617Z,45.57
2018-03-15T08:59:46.985Z,50.43
2018-03-15T09:02:14.426Z,50.63
2018-03-15T09:04:41.820Z,48.97
2018-03-15T09:07:09.195Z,44.47
2018-03-15T09:09:36.598Z,37.40
2018-03-15T09:12:04.002Z,44.63
2018-03-15T09:14:31.539Z,40.27
2018-03-15T09:16:59.007Z,50.37
2018-03-15T09:19:26.364Z,45.33
2018-03-15T09:21:53.796Z,48.20
2018-03-15T09:24:21.157Z,42.87
2018-03-15T09:26:48.568Z,40.70
2018-03-15T09:29:15.973Z,44.87
2018-03-15T09:31:43.372Z,52.47
2018-03-15T09:34:10.784Z,42.43
2018-03-15T09:36:38.184Z,39.57
2018-03-15T09:39:05.588Z,46.80
2018-03-15T09:41:33.000Z,40.67
2018-03-15T09:44:00.407Z,39.53
2018-03-15T09:46:27.813Z,41.10
2018-03-15T09:48:55.228Z,43.70
2018-03-15T09:51:22.628Z,39.77
2018-03-15T09:53:50.036Z,40.03
2018-03-15T09:56:17.460Z,39.77
2018-03-15T09:58:44.871Z,43.83
2018-03-15T10:01:12.287Z,42.53
2018-03-15T10:03:39.697Z,41.33
2018-03-15T10:06:07.122Z,35.47
2018-03-15T10:08:34.521Z,31.93
2018-03-15T10:11:01.940Z,35.00
2018-03-15T10:13:29.344Z,36.13
2018-03-15T10:15:56.746Z,32.13
2018-03-15T10:18:24.168Z,35.00
2018-03-15T10:20:51.572Z,36.33
2018-03-15T10:23:18.977Z,42.07
2018-03-15T10:25:46.424Z,32.63
2018-03-15T10:28:13.826Z,35.33
2018-03-15T10:30:41.249Z,34.10
2018-03-15T10:33:14.183Z,45.50
2018-03-15T10:35:41.584Z,35.90
2018-03-15T10:38:08.995Z,33.43
2018-03-15T10:40:36.429Z,25.30
2018-03-15T10:43:03.832Z,31.40
2018-03-15T10:45:31.340Z,27.93
2018-03-15T10:47:58.804Z,27.77
2018-03-15T10:50:26.170Z,34.00
2018-03-15T10:52:53.582Z,30.90
2018-03-15T10:55:21.009Z,25.10
2018-03-15T10:57:48.442Z,28.10
2018-03-15T11:00:15.846Z,24.93
2018-03-15T11:02:47.137Z,26.37
2018-03-15T11:05:20.172Z,36.53
2018-03-15T11:07:53.151Z,27.40
2018-03-15T11:10:20.562Z,28.80
2018-03-15T11:12:47.983Z,36.30
2018-03-15T11:15:15.396Z,31.57
2018-03-15T11:17:42.800Z,32.07
2018-03-15T11:20:10.205Z,33.43
2018-03-15T11:22:37.625Z,38.70
2018-03-15T11:25:05.026Z,33.97
2018-03-15T11:27:32.431Z,38.93
2018-03-15T11:29:59.848Z,30.50
2018-03-15T11:32:27.241Z,29.10
2018-03-15T11:34:54.644Z,36.37
2018-03-15T11:37:22.065Z,37.90
2018-03-15T11:39:49.470Z,32.53
2018-03-15T11:42:16.879Z,29.77
2018-03-15T11:44:44.297Z,27.37
2018-03-15T11:47:11.701Z,31.60
2018-03-15T11:49:39.104Z,27.73
2018-03-15T11:52:06.531Z,30.00
2018-03-15T11:54:33.945Z,31.63
2018-03-15T11:57:01.354Z,30.23
2018-03-15T11:59:28.784Z,30.70
2018-03-15T12:01:56.232Z,32.40
2018-03-15T12:04:23.641Z,34.80
2018-03-15T12:06:51.056Z,30.57
2018-03-15T12:09:18.467Z,32.00
2018-03-15T12:11:45.873Z,35.93
2018-03-15T12:14:13.308Z,38.70
2018-03-15T12:16:40.705Z,33.50
2018-03-15T12:19:08.108Z,30.13
2018-03-15T12:21:35.525Z,31.63
2018-03-15T12:24:02.936Z,40.97
2018-03-15T12:26:30.336Z,39.60
2018-03-15T12:28:57.788Z,33.10
2018-03-15T12:31:25.197Z,35.40
2018-03-15T12:33:52.589Z,33.37
2018-03-15T12:36:20.014Z,32.80
2018-03-15T12:38:47.430Z,34.77
2018-03-15T12:41:14.825Z,36.63
2018-03-15T12:43:42.239Z,32.63
2018-03-15T12:46:09.641Z,31.30
2018-03-15T12:48:37.040Z,34.17
2018-03-15T12:51:04.462Z,35.70
2018-03-15T12:53:31.881Z,37.13
2018-03-15T12:55:59.280Z,34.73
2018-03-15T12:58:26.700Z,28.10
2018-03-15T13:00:54.101Z,28.87
2018-03-15T13:03:21.492Z,26.97
2018-03-15T13:05:48.913Z,30.27
2018-03-15T13:08:16.317Z,27.73
2018-03-15T13:10:43.720Z,43.00
2018-03-15T13:13:11.132Z,25.50
2018-03-15T13:15:38.529Z,28.40
2018-03-15T13:18:05.980Z,28.90
2018-03-15T13:20:33.405Z,31.30
2018-03-15T13:23:00.806Z,33.70
2018-03-15T13:25:28.201Z,24.67
2018-03-15T13:27:55.632Z,23.33
2018-03-15T13:30:23.036Z,27.70
2018-03-15T13:32:50.448Z,26.67
2018-03-15T13:35:17.869Z,31.90
2018-03-15T13:37:45.281Z,28.03
2018-03-15T13:40:12.705Z,32.63
2018-03-15T13:42:40.124Z,33.50
2018-03-15T13:45:07.629Z,35.73
2018-03-15T13:47:35.098Z,27.80
2018-03-15T13:50:02.509Z,28.93
2018-03-15T13:52:29.913Z,29.20
2018-03-15T13:54:57.333Z,29.60
2018-03-15T13:57:24.757Z,31.50
2018-03-15T13:59:52.152Z,39.80
2018-03-15T14:02:19.556Z,35.67
2018-03-15T14:04:46.968Z,34.27
2018-03-15T14:07:14.447Z,31.53
2018-03-15T14:09:41.838Z,34.73
2018-03-15T14:12:09.252Z,33.33
2018-03-15T14:14:36.662Z,27.20
2018-03-15T14:17:04.060Z,35.83
2018-03-15T14:19:31.485Z,34.50
2018-03-15T14:21:58.890Z,37.07
2018-03-15T14:24:26.287Z,42.40
2018-03-15T14:26:53.706Z,36.53
2018-03-15T14:29:21.195Z,39.23
2018-03-15T14:31:48.524Z,52.90
2018-03-15T14:34:15.996Z,43.13
2018-03-15T14:36:43.403Z,34.00
2018-03-15T14:39:10.794Z,39.23
2018-03-15T14:41:38.204Z,37.07
2018-03-15T14:44:05.615Z,40.57
2018-03-15T14:46:33.020Z,34.87
2018-03-15T14:49:00.424Z,34.60
2018-03-15T14:51:27.894Z,39.40
2018-03-15T14:53:55.328Z,48.80
2018-03-15T14:56:22.749Z,41.40
2018-03-15T14:58:50.153Z,38.57
2018-03-15T15:01:17.676Z,32.63
2018-03-15T15:03:45.274Z,36.50
2018-03-15T15:06:12.886Z,41.87
2018-03-15T15:08:40.301Z,42.87
2018-03-15T15:11:07.895Z,40.07
2018-03-15T15:13:35.305Z,35.80
2018-03-15T15:16:02.781Z,36.23
2018-03-15T15:18:30.233Z,36.30
2018-03-15T15:20:57.733Z,40.37
2018-03-15T15:23:25.132Z,45.77
2018-03-15T15:25:52.535Z,42.90
2018-03-15T15:28:19.945Z,51.83
2018-03-15T15:30:47.348Z,40.53
2018-03-15T15:33:14.774Z,37.23
2018-03-15T15:35:42.177Z,44.00
2018-03-15T15:38:09.585Z,41.47
2018-03-15T15:40:37.003Z,38.07
2018-03-15T15:43:04.408Z,47.00
2018-03-15T15:45:31.816Z,39.73
2018-03-15T15:47:59.237Z,39.13
2018-03-15T15:50:26.637Z,49.73
2018-03-15T15:52:54.038Z,38.90
2018-03-15T15:55:21.458Z,40.13
2018-03-15T15:57:48.861Z,40.70
2018-03-15T16:00:16.258Z,36.53
2018-03-15T16:02:43.679Z,43.90
2018-03-15T16:05:11.346Z,35.20
2018-03-15T16:07:38.737Z,41.27
2018-03-15T16:10:06.165Z,39.27
2018-03-15T16:12:33.572Z,41.50
2018-03-15T16:15:00.966Z,42.80
2018-03-15T16:17:28.385Z,42.37
2018-03-15T16:19:55.790Z,39.33
2018-03-15T16:22:23.201Z,38.53
2018-03-15T16:24:50.622Z,42.13
2018-03-15T16:27:18.045Z,42.93
2018-03-15T16:29:45.532Z,40.03
2018-03-15T16:32:12.969Z,40.50
2018-03-15T16:34:40.363Z,38.97
2018-03-15T16:37:07.788Z,42.50
2018-03-15T16:39:35.211Z,35.97
2018-03-15T16:42:02.620Z,38.77
2018-03-15T16:44:30.017Z,34.57
2018-03-15T16:46:57.454Z,37.83
2018-03-15T16:49:24.878Z,36.00
2018-03-15T16:51:52.300Z,50.60
2018-03-15T16:54:19.704Z,40.80
2018-03-15T16:56:47.156Z,39.53
2018-03-15T16:59:14.523Z,36.73
2018-03-15T17:01:42.524Z,36.70
2018-03-15T17:04:09.919Z,36.30
2018-03-15T17:06:37.327Z,37.87
2018-03-15T17:09:04.751Z,35.90
2018-03-15T17:11:32.172Z,32.80
2018-03-15T17:13:59.622Z,36.40
2018-03-15T17:16:27.111Z,36.67
2018-03-15T17:18:54.518Z,32.70
2018-03-15T17:21:21.927Z,35.90
2018-03-15T17:23:49.366Z,35.23
2018-03-15T17:26:16.803Z,44.53
2018-03-15T17:28:44.288Z,39.80
2018-03-15T17:31:11.824Z,36.17
2018-03-15T17:33:39.245Z,38.43
2018-03-15T17:36:06.652Z,42.70
2018-03-15T17:38:34.096Z,40.00
2018-03-15T17:41:01.506Z,37.03
2018-03-15T17:43:28.904Z,65.57
2018-03-15T17:45:56.525Z,52.00
2018-03-15T17:48:23.944Z,40.23
2018-03-15T17:50:51.451Z,57.73
2018-03-15T17:53:18.878Z,37.33
2018-03-15T17:55:46.298Z,39.87
2018-03-15T17:58:13.723Z,38.70
2018-03-15T18:00:41.399Z,40.03
2018-03-15T18:03:08.919Z,37.80
2018-03-15T18:05:36.404Z,42.53
2018-03-15T18:08:03.903Z,35.87
2018-03-15T18:10:31.453Z,42.33
2018-03-15T18:12:59.200Z,41.53
2018-03-15T18:15:27.051Z,43.67
2018-03-15T18:17:54.867Z,39.80
2018-03-15T18:20:23.300Z,36.23
2018-03-15T18:22:51.663Z,33.87
2018-03-15T18:25:19.789Z,40.23
2018-03-15T18:27:48.103Z,43.17
2018-03-15T18:30:16.518Z,36.30
2018-03-15T18:32:44.844Z,37.80
2018-03-15T18:35:13.259Z,42.13
2018-03-15T18:37:41.696Z,36.90
2018-03-15T18:40:10.134Z,38.90
2018-03-15T18:42:38.471Z,33.00
2018-03-15T18:45:06.968Z,38.00
2018-03-15T18:47:35.396Z,35.70
2018-03-15T18:50:03.846Z,32.63
2018-03-15T18:52:32.292Z,39.77
2018-03-15T18:55:00.601Z,38.03
2018-03-15T18:57:28.962Z,42.73
2018-03-15T18:59:57.502Z,37.60
2018-03-15T19:02:25.845Z,41.43
2018-03-15T19:04:54.134Z,41.90
2018-03-15T19:07:22.511Z,44.90
2018-03-15T19:09:50.788Z,47.87
2018-03-15T19:12:19.245Z,53.17
2018-03-15T19:14:47.653Z,44.07
2018-03-15T19:17:16.070Z,43.10
2018-03-15T19:19:44.409Z,44.93
2018-03-15T19:22:12.836Z,37.97
2018-03-15T19:24:41.190Z,39.00
2018-03-15T19:27:09.528Z,50.00
2018-03-15T19:29:37.968Z,41.33
2018-03-15T19:32:06.294Z,40.97
2018-03-15T19:34:34.726Z,45.37
2018-03-15T19:37:03.170Z,40.10
2018-03-15T19:39:31.580Z,44.97
2018-03-15T19:41:59.993Z,44.97
2018-03-15T19:44:28.486Z,38.70
2018-03-15T19:46:56.812Z,44.30
2018-03-15T19:49:25.124Z,43.50
2018-03-15T19:51:53.539Z,41.10
2018-03-15T19:54:22.041Z,43.50
2018-03-15T19:56:50.424Z,41.00
2018-03-15T19:59:18.943Z,58.83
2018-03-15T20:01:47.336Z,46.10
2018-03-15T20:04:15.637Z,54.43
2018-03-15T20:06:44.081Z,50.80
2018-03-15T20:09:12.374Z,43.13
2018-03-15T20:11:40.688Z,49.47
2018-03-15T20:14:09.305Z,31.80
2018-03-15T20:16:37.684Z,32.20
2018-03-15T20:19:11.491Z,26.70
2018-03-15T20:21:40.922Z,31.27
2018-03-15T20:24:14.776Z,30.87
2018-03-15T20:26:43.127Z,33.63
2018-03-15T20:29:11.418Z,34.33
2018-03-15T20:31:42.372Z,37.57
2018-03-15T20:34:12.126Z,35.97
2018-03-15T20:36:40.641Z,30.63
2018-03-15T20:39:15.604Z,31.47
2018-03-15T20:41:44.060Z,27.70
2018-03-15T20:44:12.386Z,29.00
2018-03-15T20:46:46.336Z,25.80
2018-03-15T20:49:15.590Z,25.60
2018-03-15T20:51:43.908Z,28.87
2018-03-15T20:54:12.323Z,25.27
2018-03-15T20:56:40.638Z,27.13
2018-03-15T20:59:09.011Z,30.40
2018-03-15T21:01:37.415Z,24.40
2018-03-15T21:04:05.739Z,25.07
2018-03-15T21:06:34.023Z,27.00
2018-03-15T21:09:02.466Z,27.50
2018-03-15T21:11:30.764Z,24.37
2018-03-15T21:13:59.062Z,24.53
2018-03-15T21:16:27.459Z,23.10
2018-03-15T21:18:55.737Z,23.40
2018-03-15T21:21:24.025Z,23.93
2018-03-15T21:23:52.459Z,24.50
2018-03-15T21:26:21.782Z,24.07
2018-03-15T21:28:50.144Z,27.63
2018-03-15T21:31:18.536Z,23.63
2018-03-15T21:33:46.831Z,27.87
2018-03-15T21:36:15.055Z,29.07
2018-03-15T21:38:43.595Z,26.73
2018-03-15T21:41:11.855Z,30.37
2018-03-15T21:43:40.134Z,27.97
2018-03-15T21:46:08.600Z,30.07
2018-03-15T21:48:36.786Z,30.13
2018-03-15T21:51:05.006Z,28.30
2018-03-15T21:53:33.351Z,27.87
2018-03-15T21:56:01.523Z,33.17
2018-03-15T21:58:29.650Z,29.13
2018-03-15T22:00:57.484Z,29.80
2018-03-15T22:03:25.050Z,26.90
2018-03-15T22:05:52.469Z,26.67
2018-03-15T22:08:19.881Z,25.53
2018-03-15T22:10:47.295Z,26.03
2018-03-15T22:13:14.680Z,30.53
2018-03-15T22:15:42.103Z,25.17
2018-03-15T22:18:09.488Z,25.00
2018-03-15T22:20:36.893Z,27.07
2018-03-15T22:23:04.307Z,31.63
2018-03-15T22:25:31.753Z,31.73
2018-03-15T22:27:59.107Z,30.60
2018-03-15T22:30:26.543Z,34.70
2018-03-15T22:32:53.941Z,26.70
2018-03-15T22:35:21.342Z,30.67
2018-03-15T22:37:48.754Z,28.80
2018-03-15T22:40:16.161Z,30.43
2018-03-15T22:42:43.556Z,29.90
2018-03-15T22:45:10.968Z,27.70
2018-03-15T22:47:38.372Z,31.60
2018-03-15T22:50:05.780Z,34.50
2018-03-15T22:52:33.184Z,36.00
2018-03-15T22:55:00.596Z,32.00
2018-03-15T22:57:27.984Z,30.77
2018-03-15T22:59:55.401Z,23.33
2018-03-15T23:02:22.794Z,28.10
2018-03-15T23:04:50.191Z,25.60
2018-03-15T23:07:17.604Z,29.17
2018-03-15T23:09:44.995Z,27.70
2018-03-15T23:12:12.417Z,28.23
2018-03-15T23:14:39.825Z,32.80
2018-03-15T23:17:07.227Z,35.30
2018-03-15T23:19:34.621Z,31.27
2018-03-15T23:22:02.128Z,33.97
2018-03-15T23:24:29.537Z,31.50
2018-03-15T23:26:56.937Z,31.20
2018-03-15T23:29:24.521Z,28.60
2018-03-15T23:31:51.909Z,29.70
2018-03-15T23:34:19.344Z,29.53
2018-03-15T23:36:46.741Z,32.63
2018-03-15T23:39:14.140Z,31.57
2018-03-15T23:41:41.536Z,44.17
2018-03-15T23:44:08.997Z,28.57
2018-03-15T23:46:36.393Z,30.87
2018-03-15T23:49:03.797Z,30.83
2018-03-15T23:51:31.208Z,31.77
2018-03-15T23:53:58.608Z,30.70
2018-03-15T23:56:26.005Z,24.80
2018-03-15T23:58:53.417Z,24.63
